sensor_id;sensor_type;location;lat;lon;timestamp;pressure;altitude;pressure_sealevel;temperature;humidity
36972;BME280;40554;52.122;20.678;2022-12-18T00:01:39;101820.73;;;-4.30;100.00
36972;BME280;40554;52.122;20.678;2022-12-18T00:03:55;101828.11;;;-4.28;100.00
36972;BME280;40554;52.122;20.678;2022-12-18T00:06:12;101827.69;;;-4.28;100.00
36972;BME280;40554;52.122;20.678;2022-12-18T00:08:29;101829.41;;;-4.27;100.00
36972;BME280;40554;52.122;20.678;2022-12-18T00:10:46;101829.41;;;-4.27;100.00
36972;BME280;40554;52.122;20.678;2022-12-18T00:13:02;101841.55;;;-4.24;100.00
36972;BME280;40554;52.122;20.678;2022-12-18T00:15:19;101841.58;;;-4.22;100.00
36972;BME280;40554;52.122;20.678;2022-12-18T00:17:35;101839.89;;;-4.20;100.00
36972;BME280;40554;52.122;20.678;2022-12-18T00:19:51;101840.77;;;-4.18;100.00
36972;BME280;40554;52.122;20.678;2022-12-18T00:22:08;101843.83;;;-4.17;100.00
36972;BME280;40554;52.122;20.678;2022-12-18T00:24:24;101839.52;;;-4.15;100.00
36972;BME280;40554;52.122;20.678;2022-12-18T00:26:40;101842.57;;;-4.14;100.00
36972;BME280;40554;52.122;20.678;2022-12-18T00:29:02;101846.45;;;-4.14;100.00
36972;BME280;40554;52.122;20.678;2022-12-18T00:31:22;101843.01;;;-4.13;100.00
36972;BME280;40554;52.122;20.678;2022-12-18T00:33:39;101845.20;;;-4.11;100.00
36972;BME280;40554;52.122;20.678;2022-12-18T00:36:04;101849.52;;;-4.10;100.00
36972;BME280;40554;52.122;20.678;2022-12-18T00:38:22;101855.17;;;-4.09;100.00
36972;BME280;40554;52.122;20.678;2022-12-18T00:40:38;101859.06;;;-4.08;100.00
36972;BME280;40554;52.122;20.678;2022-12-18T00:42:55;101860.36;;;-4.08;100.00
36972;BME280;40554;52.122;20.678;2022-12-18T00:45:11;101865.58;;;-4.06;100.00
36972;BME280;40554;52.122;20.678;2022-12-18T00:47:27;101867.74;;;-4.06;100.00
36972;BME280;40554;52.122;20.678;2022-12-18T00:49:44;101871.67;;;-4.04;100.00
36972;BME280;40554;52.122;20.678;2022-12-18T00:52:00;101864.77;;;-4.02;100.00
36972;BME280;40554;52.122;20.678;2022-12-18T00:54:17;101857.03;;;-4.01;100.00
36972;BME280;40554;52.122;20.678;2022-12-18T00:56:36;101870.85;;;-4.00;100.00
36972;BME280;40554;52.122;20.678;2022-12-18T00:58:53;101872.58;;;-3.99;100.00
36972;BME280;40554;52.122;20.678;2022-12-18T01:01:09;101876.94;;;-3.98;100.00
36972;BME280;40554;52.122;20.678;2022-12-18T01:03:26;101876.51;;;-3.97;100.00
36972;BME280;40554;52.122;20.678;2022-12-18T01:05:42;101886.02;;;-3.96;100.00
36972;BME280;40554;52.122;20.678;2022-12-18T01:07:59;101891.20;;;-3.96;100.00
36972;BME280;40554;52.122;20.678;2022-12-18T01:10:15;101899.87;;;-3.96;100.00
36972;BME280;40554;52.122;20.678;2022-12-18T01:12:32;101897.28;;;-3.94;100.00
36972;BME280;40554;52.122;20.678;2022-12-18T01:14:48;101907.22;;;-3.94;100.00
36972;BME280;40554;52.122;20.678;2022-12-18T01:17:04;101897.75;;;-3.92;100.00
36972;BME280;40554;52.122;20.678;2022-12-18T01:19:20;101899.48;;;-3.92;100.00
36972;BME280;40554;52.122;20.678;2022-12-18T01:21:37;101911.62;;;-3.90;100.00
36972;BME280;40554;52.122;20.678;2022-12-18T01:23:55;101904.28;;;-3.89;100.00
36972;BME280;40554;52.122;20.678;2022-12-18T01:26:14;101904.28;;;-3.89;100.00
36972;BME280;40554;52.122;20.678;2022-12-18T01:28:31;101907.30;;;-3.89;100.00
36972;BME280;40554;52.122;20.678;2022-12-18T01:30:47;101914.64;;;-3.90;100.00
36972;BME280;40554;52.122;20.678;2022-12-18T01:33:05;101917.66;;;-3.91;100.00
36972;BME280;40554;52.122;20.678;2022-12-18T01:35:21;101917.66;;;-3.89;100.00
36972;BME280;40554;52.122;20.678;2022-12-18T01:37:37;101924.58;;;-3.90;100.00
36972;BME280;40554;52.122;20.678;2022-12-18T01:39:54;101921.55;;;-3.91;100.00
36972;BME280;40554;52.122;20.678;2022-12-18T01:42:12;101926.73;;;-3.89;100.00
36972;BME280;40554;52.122;20.678;2022-12-18T01:45:00;101923.72;;;-3.89;100.00
36972;BME280;40554;52.122;20.678;2022-12-18T01:47:21;101928.47;;;-3.88;100.00
36972;BME280;40554;52.122;20.678;2022-12-18T01:49:53;101932.79;;;-3.89;100.00
36972;BME280;40554;52.122;20.678;2022-12-18T01:52:11;101938.41;;;-3.89;100.00
36972;BME280;40554;52.122;20.678;2022-12-18T01:54:27;101943.16;;;-3.89;100.00
36972;BME280;40554;52.122;20.678;2022-12-18T01:56:44;101950.93;;;-3.89;100.00
36972;BME280;40554;52.122;20.678;2022-12-18T01:59:04;101956.59;;;-3.86;100.00
36972;BME280;40554;52.122;20.678;2022-12-18T02:01:23;101960.48;;;-3.86;100.00
36972;BME280;40554;52.122;20.678;2022-12-18T02:03:43;101961.34;;;-3.86;100.00
36972;BME280;40554;52.122;20.678;2022-12-18T02:09:02;101963.94;;;-3.86;100.00
36972;BME280;40554;52.122;20.678;2022-12-18T02:11:44;101962.20;;;-3.87;100.00
36972;BME280;40554;52.122;20.678;2022-12-18T02:16:52;101985.10;;;-3.86;100.00
36972;BME280;40554;52.122;20.678;2022-12-18T02:19:36;101990.28;;;-3.86;100.00
36972;BME280;40554;52.122;20.678;2022-12-18T02:24:43;101991.58;;;-3.88;100.00
36972;BME280;40554;52.122;20.678;2022-12-18T02:27:05;101998.88;;;-3.89;100.00
36972;BME280;40554;52.122;20.678;2022-12-18T02:29:26;102005.83;;;-3.88;100.00
36972;BME280;40554;52.122;20.678;2022-12-18T02:31:49;102004.06;;;-3.89;100.00
36972;BME280;40554;52.122;20.678;2022-12-18T02:34:09;102004.53;;;-3.88;100.00
36972;BME280;40554;52.122;20.678;2022-12-18T02:36:28;102001.95;;;-3.88;100.00
36972;BME280;40554;52.122;20.678;2022-12-18T02:38:46;102011.02;;;-3.88;100.00
36972;BME280;40554;52.122;20.678;2022-12-18T02:41:03;102008.86;;;-3.87;100.00
36972;BME280;40554;52.122;20.678;2022-12-18T02:43:20;102014.05;;;-3.87;100.00
36972;BME280;40554;52.122;20.678;2022-12-18T02:45:48;102021.82;;;-3.87;100.00
36972;BME280;40554;52.122;20.678;2022-12-18T02:48:10;102021.39;;;-3.86;100.00
36972;BME280;40554;52.122;20.678;2022-12-18T02:50:34;102027.00;;;-3.87;100.00
36972;BME280;40554;52.122;20.678;2022-12-18T03:03:59;102038.67;;;-3.87;100.00
36972;BME280;40554;52.122;20.678;2022-12-18T03:08:51;102048.60;;;-3.88;100.00
36972;BME280;40554;52.122;20.678;2022-12-18T03:11:12;102053.31;;;-3.89;100.00
36972;BME280;40554;52.122;20.678;2022-12-18T03:13:55;102057.19;;;-3.90;100.00
36972;BME280;40554;52.122;20.678;2022-12-18T03:15:59;102067.98;;;-3.91;100.00
36972;BME280;40554;52.122;20.678;2022-12-18T03:18:21;102072.70;;;-3.92;100.00
36972;BME280;40554;52.122;20.678;2022-12-18T03:20:46;102079.66;;;-3.91;100.00
36972;BME280;40554;52.122;20.678;2022-12-18T03:23:13;102079.66;;;-3.91;100.00
36972;BME280;40554;52.122;20.678;2022-12-18T03:25:30;102077.45;;;-3.93;100.00
36972;BME280;40554;52.122;20.678;2022-12-18T03:27:51;102081.34;;;-3.93;100.00
36972;BME280;40554;52.122;20.678;2022-12-18T03:30:10;102077.89;;;-3.92;100.00
36972;BME280;40554;52.122;20.678;2022-12-18T03:32:31;102077.02;;;-3.92;100.00
36972;BME280;40554;52.122;20.678;2022-12-18T03:34:50;102076.58;;;-3.93;100.00
36972;BME280;40554;52.122;20.678;2022-12-18T03:37:08;102072.69;;;-3.93;100.00
36972;BME280;40554;52.122;20.678;2022-12-18T03:39:24;102071.83;;;-3.92;100.00
36972;BME280;40554;52.122;20.678;2022-12-18T03:41:55;102077.93;;;-3.90;100.00
36972;BME280;40554;52.122;20.678;2022-12-18T03:47:06;102084.41;;;-3.90;100.00
36972;BME280;40554;52.122;20.678;2022-12-18T03:52:13;102093.00;;;-3.93;100.00
36972;BME280;40554;52.122;20.678;2022-12-18T03:54:33;102098.66;;;-3.90;100.00
36972;BME280;40554;52.122;20.678;2022-12-18T03:56:58;102099.48;;;-3.93;100.00
36972;BME280;40554;52.122;20.678;2022-12-18T03:59:16;102102.89;;;-3.94;100.00
36972;BME280;40554;52.122;20.678;2022-12-18T04:01:40;102111.57;;;-3.93;100.00
36972;BME280;40554;52.122;20.678;2022-12-18T04:04:00;102108.94;;;-3.95;100.00
36972;BME280;40554;52.122;20.678;2022-12-18T04:06:18;102108.50;;;-3.96;100.00
36972;BME280;40554;52.122;20.678;2022-12-18T04:08:35;102113.68;;;-3.96;100.00
36972;BME280;40554;52.122;20.678;2022-12-18T04:10:51;102113.20;;;-3.97;100.00
36972;BME280;40554;52.122;20.678;2022-12-18T04:13:09;102113.64;;;-3.97;100.00
36972;BME280;40554;52.122;20.678;2022-12-18T04:15:25;102116.66;;;-3.98;100.00
36972;BME280;40554;52.122;20.678;2022-12-18T04:17:46;102123.58;;;-3.97;100.00
36972;BME280;40554;52.122;20.678;2022-12-18T04:20:04;102126.59;;;-3.97;100.00
36972;BME280;40554;52.122;20.678;2022-12-18T04:22:21;102134.80;;;-3.98;100.00
36972;BME280;40554;52.122;20.678;2022-12-18T04:24:38;102138.21;;;-3.99;100.00
36972;BME280;40554;52.122;20.678;2022-12-18T04:26:54;102142.95;;;-4.00;100.00
36972;BME280;40554;52.122;20.678;2022-12-18T04:29:10;102143.81;;;-4.01;100.00
36972;BME280;40554;52.122;20.678;2022-12-18T04:31:27;102142.05;;;-4.02;100.00
36972;BME280;40554;52.122;20.678;2022-12-18T04:33:43;102153.31;;;-4.02;100.00
36972;BME280;40554;52.122;20.678;2022-12-18T04:35:59;102158.51;;;-4.00;100.00
36972;BME280;40554;52.122;20.678;2022-12-18T04:38:16;102164.55;;;-4.01;100.00
36972;BME280;40554;52.122;20.678;2022-12-18T04:40:32;102173.62;;;-4.01;100.00
36972;BME280;40554;52.122;20.678;2022-12-18T04:42:48;102174.91;;;-4.01;100.00
36972;BME280;40554;52.122;20.678;2022-12-18T04:45:06;102181.41;;;-3.99;100.00
36972;BME280;40554;52.122;20.678;2022-12-18T04:47:23;102177.08;;;-4.01;100.00
36972;BME280;40554;52.122;20.678;2022-12-18T04:49:40;102188.31;;;-4.00;100.00
36972;BME280;40554;52.122;20.678;2022-12-18T04:51:56;102190.46;;;-4.01;100.00
36972;BME280;40554;52.122;20.678;2022-12-18T04:54:12;102190.89;;;-4.02;100.00
36972;BME280;40554;52.122;20.678;2022-12-18T04:56:31;102194.34;;;-4.01;100.00
36972;BME280;40554;52.122;20.678;2022-12-18T04:58:47;102194.34;;;-4.01;100.00
36972;BME280;40554;52.122;20.678;2022-12-18T05:01:04;102188.69;;;-4.02;100.00
36972;BME280;40554;52.122;20.678;2022-12-18T05:03:20;102191.71;;;-4.03;100.00
36972;BME280;40554;52.122;20.678;2022-12-18T05:05:37;102193.44;;;-4.03;100.00
36972;BME280;40554;52.122;20.678;2022-12-18T05:07:53;102198.17;;;-4.04;100.00
36972;BME280;40554;52.122;20.678;2022-12-18T05:10:09;102201.59;;;-4.05;100.00
36972;BME280;40554;52.122;20.678;2022-12-18T05:12:25;102208.94;;;-4.05;100.00
36972;BME280;40554;52.122;20.678;2022-12-18T05:14:42;102218.44;;;-4.05;100.00
36972;BME280;40554;52.122;20.678;2022-12-18T05:16:58;102221.03;;;-4.05;100.00
36972;BME280;40554;52.122;20.678;2022-12-18T05:19:14;102229.27;;;-4.04;100.00
36972;BME280;40554;52.122;20.678;2022-12-18T05:21:31;102224.05;;;-4.06;100.00
36972;BME280;40554;52.122;20.678;2022-12-18T05:23:47;102221.88;;;-4.06;100.00
36972;BME280;40554;52.122;20.678;2022-12-18T05:26:05;102227.06;;;-4.06;100.00
36972;BME280;40554;52.122;20.678;2022-12-18T05:28:24;102213.09;;;-4.13;100.00
36972;BME280;40554;52.122;20.678;2022-12-18T05:30:42;102220.52;;;-4.09;100.00
36972;BME280;40554;52.122;20.678;2022-12-18T05:32:58;102226.09;;;-4.11;100.00
36972;BME280;40554;52.122;20.678;2022-12-18T05:35:14;102228.23;;;-4.12;100.00
36972;BME280;40554;52.122;20.678;2022-12-18T05:37:30;102231.20;;;-4.14;100.00
36972;BME280;40554;52.122;20.678;2022-12-18T05:39:47;102238.06;;;-4.16;100.00
36972;BME280;40554;52.122;20.678;2022-12-18T05:42:03;102235.85;;;-4.18;100.00
36972;BME280;40554;52.122;20.678;2022-12-18T05:44:19;102235.84;;;-4.20;100.00
36972;BME280;40554;52.122;20.678;2022-12-18T05:46:36;102240.55;;;-4.21;100.00
36972;BME280;40554;52.122;20.678;2022-12-18T05:48:52;102234.97;;;-4.20;100.00
36972;BME280;40554;52.122;20.678;2022-12-18T05:51:14;102237.09;;;-4.21;100.00
36972;BME280;40554;52.122;20.678;2022-12-18T05:53:31;102240.48;;;-4.24;100.00
36972;BME280;40554;52.122;20.678;2022-12-18T05:55:48;102246.94;;;-4.26;100.00
36972;BME280;40554;52.122;20.678;2022-12-18T05:58:05;102246.03;;;-4.28;100.00
36972;BME280;40554;52.122;20.678;2022-12-18T06:00:23;102248.61;;;-4.28;100.00
36972;BME280;40554;52.122;20.678;2022-12-18T06:02:39;102249.86;;;-4.29;100.00
36972;BME280;40554;52.122;20.678;2022-12-18T06:04:55;102260.65;;;-4.30;100.00
36972;BME280;40554;52.122;20.678;2022-12-18T06:07:11;102262.32;;;-4.32;100.00
36972;BME280;40554;52.122;20.678;2022-12-18T06:09:29;102270.50;;;-4.34;100.00
36972;BME280;40554;52.122;20.678;2022-12-18T06:11:45;102277.36;;;-4.36;100.00
36972;BME280;40554;52.122;20.678;2022-12-18T06:14:02;102279.95;;;-4.36;100.00
36972;BME280;40554;52.122;20.678;2022-12-18T06:16:19;102284.20;;;-4.38;100.00
36972;BME280;40554;52.122;20.678;2022-12-18T06:18:35;102293.27;;;-4.38;100.00
36972;BME280;40554;52.122;20.678;2022-12-18T06:20:56;102304.11;;;-4.37;100.00
36972;BME280;40554;52.122;20.678;2022-12-18T06:23:13;102304.11;;;-4.37;100.00
36972;BME280;40554;52.122;20.678;2022-12-18T06:25:29;102305.80;;;-4.37;100.00
36972;BME280;40554;52.122;20.678;2022-12-18T06:27:47;102311.87;;;-4.37;100.00
36972;BME280;40554;52.122;20.678;2022-12-18T06:30:05;102319.72;;;-4.34;100.00
36972;BME280;40554;52.122;20.678;2022-12-18T06:32:22;102324.42;;;-4.35;100.00
36972;BME280;40554;52.122;20.678;2022-12-18T06:34:38;102321.41;;;-4.34;100.00
36972;BME280;40554;52.122;20.678;2022-12-18T06:36:55;102330.45;;;-4.36;100.00
36972;BME280;40554;52.122;20.678;2022-12-18T06:39:11;102320.97;;;-4.35;100.00
36972;BME280;40554;52.122;20.678;2022-12-18T06:41:27;102329.53;;;-4.38;100.00
36972;BME280;40554;52.122;20.678;2022-12-18T06:43:44;102342.04;;;-4.39;100.00
36972;BME280;40554;52.122;20.678;2022-12-18T06:46:01;102342.86;;;-4.40;100.00
36972;BME280;40554;52.122;20.678;2022-12-18T06:48:21;102343.33;;;-4.39;100.00
36972;BME280;40554;52.122;20.678;2022-12-18T06:50:37;102342.47;;;-4.39;100.00
36972;BME280;40554;52.122;20.678;2022-12-18T06:52:57;102354.98;;;-4.39;100.00
36972;BME280;40554;52.122;20.678;2022-12-18T06:55:13;102354.98;;;-4.39;100.00
36972;BME280;40554;52.122;20.678;2022-12-18T06:57:29;102350.68;;;-4.38;100.00
36972;BME280;40554;52.122;20.678;2022-12-18T06:59:46;102353.27;;;-4.38;100.00
36972;BME280;40554;52.122;20.678;2022-12-18T07:02:02;102349.33;;;-4.40;100.00
36972;BME280;40554;52.122;20.678;2022-12-18T07:04:18;102350.73;;;-4.37;100.00
36972;BME280;40554;52.122;20.678;2022-12-18T07:06:35;102360.24;;;-4.36;100.00
36972;BME280;40554;52.122;20.678;2022-12-18T07:08:52;102358.09;;;-4.35;100.00
36972;BME280;40554;52.122;20.678;2022-12-18T07:11:09;102368.08;;;-4.33;100.00
36972;BME280;40554;52.122;20.678;2022-12-18T07:13:25;102368.08;;;-4.33;100.00
36972;BME280;40554;52.122;20.678;2022-12-18T07:15:43;102375.05;;;-4.30;100.00
36972;BME280;40554;52.122;20.678;2022-12-18T07:17:59;102379.38;;;-4.29;100.00
36972;BME280;40554;52.122;20.678;2022-12-18T07:20:15;102377.70;;;-4.29;100.00
36972;BME280;40554;52.122;20.678;2022-12-18T07:22:32;102381.98;;;-4.29;100.00
36972;BME280;40554;52.122;20.678;2022-12-18T07:24:48;102385.05;;;-4.28;100.00
36972;BME280;40554;52.122;20.678;2022-12-18T07:27:04;102389.35;;;-4.29;100.00
36972;BME280;40554;52.122;20.678;2022-12-18T07:29:21;102397.50;;;-4.31;100.00
36972;BME280;40554;52.122;20.678;2022-12-18T07:31:37;102402.63;;;-4.32;100.00
36972;BME280;40554;52.122;20.678;2022-12-18T07:33:53;102410.45;;;-4.31;100.00
36972;BME280;40554;52.122;20.678;2022-12-18T07:36:10;102402.68;;;-4.31;100.00
36972;BME280;40554;52.122;20.678;2022-12-18T07:38:27;102408.23;;;-4.33;100.00
36972;BME280;40554;52.122;20.678;2022-12-18T07:40:43;102408.60;;;-4.35;100.00
36972;BME280;40554;52.122;20.678;2022-12-18T07:42:59;102410.77;;;-4.34;100.00
36972;BME280;40554;52.122;20.678;2022-12-18T07:45:16;102412.97;;;-4.34;100.00
36972;BME280;40554;52.122;20.678;2022-12-18T07:47:34;102419.89;;;-4.33;100.00
36972;BME280;40554;52.122;20.678;2022-12-18T07:49:54;102425.07;;;-4.33;100.00
36972;BME280;40554;52.122;20.678;2022-12-18T07:52:10;102433.21;;;-4.35;100.00
36972;BME280;40554;52.122;20.678;2022-12-18T07:54:27;102434.51;;;-4.35;100.00
36972;BME280;40554;52.122;20.678;2022-12-18T07:56:44;102435.73;;;-4.38;100.00
36972;BME280;40554;52.122;20.678;2022-12-18T07:59:00;102441.39;;;-4.37;100.00
36972;BME280;40554;52.122;20.678;2022-12-18T08:01:17;102445.27;;;-4.37;100.00
36972;BME280;40554;52.122;20.678;2022-12-18T08:03:34;102444.42;;;-4.36;100.00
36972;BME280;40554;52.122;20.678;2022-12-18T08:05:50;102453.48;;;-4.36;100.00
36972;BME280;40554;52.122;20.678;2022-12-18T08:08:09;102458.30;;;-4.34;100.00
36972;BME280;40554;52.122;20.678;2022-12-18T08:10:26;102459.59;;;-4.34;100.00
36972;BME280;40554;52.122;20.678;2022-12-18T08:12:42;102463.55;;;-4.31;100.00
36972;BME280;40554;52.122;20.678;2022-12-18T08:14:59;102468.37;;;-4.29;100.00
36972;BME280;40554;52.122;20.678;2022-12-18T08:17:17;102481.77;;;-4.28;100.00
36972;BME280;40554;52.122;20.678;2022-12-18T08:19:33;102476.22;;;-4.26;100.00
36972;BME280;40554;52.122;20.678;2022-12-18T08:21:49;102487.95;;;-4.22;100.00
36972;BME280;40554;52.122;20.678;2022-12-18T08:24:08;102482.39;;;-4.20;100.00
36972;BME280;40554;52.122;20.678;2022-12-18T08:26:26;102484.14;;;-4.19;100.00
36972;BME280;40554;52.122;20.678;2022-12-18T08:28:45;102484.98;;;-4.20;100.00
36972;BME280;40554;52.122;20.678;2022-12-18T08:31:02;102490.17;;;-4.20;100.00
36972;BME280;40554;52.122;20.678;2022-12-18T08:33:19;102487.59;;;-4.19;100.00
36972;BME280;40554;52.122;20.678;2022-12-18T08:35:36;102489.31;;;-4.19;100.00
36972;BME280;40554;52.122;20.678;2022-12-18T08:37:52;102488.95;;;-4.17;100.00
36972;BME280;40554;52.122;20.678;2022-12-18T08:40:10;102501.13;;;-4.13;100.00
36972;BME280;40554;52.122;20.678;2022-12-18T08:42:26;102503.27;;;-4.14;100.00
36972;BME280;40554;52.122;20.678;2022-12-18T08:45:02;102497.61;;;-4.15;100.00
36972;BME280;40554;52.122;20.678;2022-12-18T08:47:19;102499.76;;;-4.16;100.00
36972;BME280;40554;52.122;20.678;2022-12-18T08:49:35;102502.80;;;-4.15;100.00
36972;BME280;40554;52.122;20.678;2022-12-18T08:51:54;102493.78;;;-4.14;100.00
36972;BME280;40554;52.122;20.678;2022-12-18T08:54:12;102501.61;;;-4.12;100.00
36972;BME280;40554;52.122;20.678;2022-12-18T08:56:30;102508.53;;;-4.11;100.00
36972;BME280;40554;52.122;20.678;2022-12-18T08:58:47;102513.77;;;-4.10;100.00
36972;BME280;40554;52.122;20.678;2022-12-18T09:01:07;102515.52;;;-4.09;100.00
36972;BME280;40554;52.122;20.678;2022-12-18T09:03:25;102514.29;;;-4.06;100.00
36972;BME280;40554;52.122;20.678;2022-12-18T09:05:43;102511.34;;;-4.02;100.00
36972;BME280;40554;52.122;20.678;2022-12-18T09:08:01;102514.86;;;-4.00;100.00
36972;BME280;40554;52.122;20.678;2022-12-18T09:10:17;102517.09;;;-3.98;100.00
36972;BME280;40554;52.122;20.678;2022-12-18T09:12:34;102527.10;;;-3.94;100.00
36972;BME280;40554;52.122;20.678;2022-12-18T09:14:52;102530.62;;;-3.92;100.00
36972;BME280;40554;52.122;20.678;2022-12-18T09:17:10;102526.30;;;-3.92;100.00
36972;BME280;40554;52.122;20.678;2022-12-18T09:19:28;102526.30;;;-3.92;100.00
36972;BME280;40554;52.122;20.678;2022-12-18T09:21:44;102485.14;;;-4.14;100.00
36972;BME280;40554;52.122;20.678;2022-12-18T09:24:01;102535.08;;;-3.87;100.00
36972;BME280;40554;52.122;20.678;2022-12-18T09:26:18;102538.59;;;-3.85;100.00
36972;BME280;40554;52.122;20.678;2022-12-18T09:28:34;102539.54;;;-3.81;100.00
36972;BME280;40554;52.122;20.678;2022-12-18T09:30:50;102538.69;;;-3.80;100.00
36972;BME280;40554;52.122;20.678;2022-12-18T09:33:07;102539.19;;;-3.77;100.00
36972;BME280;40554;52.122;20.678;2022-12-18T09:35:24;102534.92;;;-3.75;100.00
36972;BME280;40554;52.122;20.678;2022-12-18T09:37:40;102532.83;;;-3.73;100.00
36972;BME280;40554;52.122;20.678;2022-12-18T09:39:58;102531.18;;;-3.69;100.00
36972;BME280;40554;52.122;20.678;2022-12-18T09:42:20;102525.62;;;-3.67;100.00
36972;BME280;40554;52.122;20.678;2022-12-18T09:44:43;102533.47;;;-3.64;100.00
36972;BME280;40554;52.122;20.678;2022-12-18T09:49:34;102534.94;;;-3.58;100.00
36972;BME280;40554;52.122;20.678;2022-12-18T09:54:28;102548.92;;;-3.51;100.00
36972;BME280;40554;52.122;20.678;2022-12-18T09:56:48;102549.48;;;-3.46;100.00
36972;BME280;40554;52.122;20.678;2022-12-18T09:59:05;102553.92;;;-3.42;100.00
36972;BME280;40554;52.122;20.678;2022-12-18T10:01:22;102557.41;;;-3.40;100.00
36972;BME280;40554;52.122;20.678;2022-12-18T10:03:39;102565.69;;;-3.37;100.00
36972;BME280;40554;52.122;20.678;2022-12-18T10:06:26;102563.59;;;-3.35;100.00
36972;BME280;40554;52.122;20.678;2022-12-18T10:08:54;102567.55;;;-3.31;100.00
36972;BME280;40554;52.122;20.678;2022-12-18T10:14:37;102564.14;;;-3.29;100.00
36972;BME280;40554;52.122;20.678;2022-12-18T10:19:59;102550.91;;;-3.22;100.00
36972;BME280;40554;52.122;20.678;2022-12-18T10:27:34;102543.80;;;-3.12;100.00
36972;BME280;40554;52.122;20.678;2022-12-18T10:29:54;102553.34;;;-3.09;100.00
36972;BME280;40554;52.122;20.678;2022-12-18T10:32:21;102552.97;;;-3.07;100.00
36972;BME280;40554;52.122;20.678;2022-12-18T10:34:38;102558.20;;;-3.06;100.00
36972;BME280;40554;52.122;20.678;2022-12-18T10:36:55;102554.75;;;-3.05;100.00
36972;BME280;40554;52.122;20.678;2022-12-18T10:39:23;102551.80;;;-3.01;100.00
36972;BME280;40554;52.122;20.678;2022-12-18T10:41:41;102550.98;;;-2.99;100.00
36972;BME280;40554;52.122;20.678;2022-12-18T10:44:14;102553.68;;;-2.96;100.00
36972;BME280;40554;52.122;20.678;2022-12-18T10:46:38;102545.03;;;-2.95;100.00
36972;BME280;40554;52.122;20.678;2022-12-18T10:48:56;102549.42;;;-2.92;100.00
36972;BME280;40554;52.122;20.678;2022-12-18T10:51:24;102548.19;;;-2.89;100.00
36972;BME280;40554;52.122;20.678;2022-12-18T10:54:00;102549.53;;;-2.87;100.00
36972;BME280;40554;52.122;20.678;2022-12-18T10:56:24;102545.21;;;-2.87;100.00
36972;BME280;40554;52.122;20.678;2022-12-18T10:58:42;102543.91;;;-2.87;100.00
36972;BME280;40554;52.122;20.678;2022-12-18T11:01:12;102552.57;;;-2.86;100.00
36972;BME280;40554;52.122;20.678;2022-12-18T11:03:40;102560.36;;;-2.86;100.00
36972;BME280;40554;52.122;20.678;2022-12-18T11:08:26;102556.53;;;-2.83;100.00
36972;BME280;40554;52.122;20.678;2022-12-18T11:10:44;102557.45;;;-2.81;100.00
36972;BME280;40554;52.122;20.678;2022-12-18T11:13:20;102559.17;;;-2.82;100.00
36972;BME280;40554;52.122;20.678;2022-12-18T11:15:39;102551.78;;;-2.82;100.00
36972;BME280;40554;52.122;20.678;2022-12-18T11:17:56;102554.78;;;-2.84;100.00
36972;BME280;40554;52.122;20.678;2022-12-18T11:20:31;102557.39;;;-2.84;100.00
36972;BME280;40554;52.122;20.678;2022-12-18T11:22:56;102547.81;;;-2.85;100.00
36972;BME280;40554;52.122;20.678;2022-12-18T11:25:19;102552.63;;;-2.83;100.00
36972;BME280;40554;52.122;20.678;2022-12-18T11:27:35;102553.98;;;-2.82;100.00
36972;BME280;40554;52.122;20.678;2022-12-18T11:29:51;102559.17;;;-2.82;100.00
36972;BME280;40554;52.122;20.678;2022-12-18T11:32:30;102553.08;;;-2.82;100.00
36972;BME280;40554;52.122;20.678;2022-12-18T11:35:13;102556.15;;;-2.81;100.00
36972;BME280;40554;52.122;20.678;2022-12-18T11:37:32;102560.05;;;-2.81;100.00
36972;BME280;40554;52.122;20.678;2022-12-18T11:39:57;102564.00;;;-2.78;100.00
36972;BME280;40554;52.122;20.678;2022-12-18T11:42:25;102567.53;;;-2.75;100.00
36972;BME280;40554;52.122;20.678;2022-12-18T11:44:56;102570.13;;;-2.75;100.00
36972;BME280;40554;52.122;20.678;2022-12-18T11:49:53;102558.42;;;-2.76;100.00
36972;BME280;40554;52.122;20.678;2022-12-18T11:52:28;102564.00;;;-2.78;100.00
36972;BME280;40554;52.122;20.678;2022-12-18T11:54:42;102567.83;;;-2.81;100.00
36972;BME280;40554;52.122;20.678;2022-12-18T11:57:10;102579.95;;;-2.82;100.00
36972;BME280;40554;52.122;20.678;2022-12-18T12:00:08;102576.43;;;-2.84;100.00
36972;BME280;40554;52.122;20.678;2022-12-18T12:02:46;102578.11;;;-2.86;100.00
36972;BME280;40554;52.122;20.678;2022-12-18T12:08:02;102570.70;;;-2.88;100.00
36972;BME280;40554;52.122;20.678;2022-12-18T12:13:39;102581.45;;;-2.92;100.00
36972;BME280;40554;52.122;20.678;2022-12-18T12:16:10;102584.42;;;-2.94;100.00
36972;BME280;40554;52.122;20.678;2022-12-18T12:18:49;102581.34;;;-2.96;100.00
36972;BME280;40554;52.122;20.678;2022-12-18T12:21:13;102586.95;;;-2.97;100.00
36972;BME280;40554;52.122;20.678;2022-12-18T12:26:03;102577.73;;;-3.03;100.00
36972;BME280;40554;52.122;20.678;2022-12-18T12:28:58;102573.35;;;-3.05;100.00
36972;BME280;40554;52.122;20.678;2022-12-18T12:34:20;102584.09;;;-3.09;100.00
36972;BME280;40554;52.122;20.678;2022-12-18T12:39:26;102595.28;;;-3.12;100.00
36972;BME280;40554;52.122;20.678;2022-12-18T12:41:45;102599.60;;;-3.12;100.00
36972;BME280;40554;52.122;20.678;2022-12-18T12:44:27;102603.07;;;-3.12;100.00
36972;BME280;40554;52.122;20.678;2022-12-18T12:46:47;102605.61;;;-3.13;100.00
36972;BME280;40554;52.122;20.678;2022-12-18T12:49:17;102614.70;;;-3.13;100.00
36972;BME280;40554;52.122;20.678;2022-12-18T12:51:36;102620.74;;;-3.14;100.00
36972;BME280;40554;52.122;20.678;2022-12-18T12:53:56;102631.95;;;-3.15;100.00
36972;BME280;40554;52.122;20.678;2022-12-18T12:56:17;102641.45;;;-3.16;100.00